Time;durP1;ratioP1;P1;durP2;ratioP2;P2;SDS_P1;SDS_P2;PMS_P1;PMS_P2;Temp;Humidity;BMP_temperature;BMP_pressure;BME280_temperature;BME280_humidity;BME280_pressure;Samples;Min_cycle;Max_cycle;Signal;HPM_P1;HPM_P2
2023/05/06 00:01:00;;;;;;;21.75;14.65;;;13.80;99.90;;;;;;4899507;29;20032;-76
2023/05/06 00:03:26;;;;;;;20.10;14.45;;;13.70;99.90;;;;;;4915814;29;20114;-76
2023/05/06 00:05:53;;;;;;;24.95;14.65;;;13.70;99.90;;;;;;4916254;29;20032;-73
2023/05/06 00:08:19;;;;;;;20.52;14.23;;;13.70;99.90;;;;;;4915719;29;20039;-77
2023/05/06 00:10:45;;;;;;;20.60;14.32;;;13.70;99.90;;;;;;4915949;29;20555;-73
2023/05/06 00:13:13;;;;;;;19.48;13.52;;;13.60;99.90;;;;;;4915706;29;20028;-73
2023/05/06 00:15:39;;;;;;;22.15;15.07;;;13.60;99.90;;;;;;4915859;29;20062;-75
2023/05/06 00:18:05;;;;;;;21.02;14.10;;;13.60;99.90;;;;;;4915078;29;20488;-73
2023/05/06 00:20:32;;;;;;;22.58;14.05;;;13.50;99.90;;;;;;4915974;29;20392;-71
2023/05/06 00:22:58;;;;;;;23.88;16.13;;;13.50;99.90;;;;;;4915843;29;20039;-75
2023/05/06 00:25:24;;;;;;;31.90;15.35;;;13.50;99.90;;;;;;4915622;29;20121;-72
2023/05/06 00:27:51;;;;;;;23.00;15.82;;;13.50;99.90;;;;;;4898829;29;20067;-71
2023/05/06 00:30:20;;;;;;;25.60;16.98;;;13.50;99.90;;;;;;4915617;29;20032;-72
2023/05/06 00:32:48;;;;;;;20.92;15.23;;;13.50;99.90;;;;;;4915804;29;20031;-76
2023/05/06 00:35:14;;;;;;;21.33;15.32;;;13.50;99.90;;;;;;4915836;29;20059;-76
2023/05/06 00:37:45;;;;;;;22.27;14.43;;;13.40;99.90;;;;;;4898238;29;20130;-74
2023/05/06 00:40:11;;;;;;;25.70;16.70;;;13.50;99.90;;;;;;4915505;29;20059;-75
2023/05/06 00:42:37;;;;;;;28.20;14.98;;;13.50;99.90;;;;;;4898116;29;20035;-75
2023/05/06 00:45:04;;;;;;;23.80;13.55;;;13.40;99.90;;;;;;4915610;29;20068;-76
2023/05/06 00:47:30;;;;;;;20.55;13.98;;;13.40;99.90;;;;;;4898751;29;20130;-75
2023/05/06 00:49:57;;;;;;;20.00;14.07;;;13.40;99.90;;;;;;4915586;29;20401;-76
2023/05/06 00:52:22;;;;;;;20.02;13.63;;;13.40;99.90;;;;;;4898629;29;20120;-76
2023/05/06 00:54:48;;;;;;;20.77;14.38;;;13.30;99.90;;;;;;4915513;29;20035;-71
2023/05/06 00:57:17;;;;;;;24.83;14.48;;;13.40;99.90;;;;;;4915294;29;20124;-71
2023/05/06 00:59:43;;;;;;;21.58;13.98;;;13.30;99.90;;;;;;4898639;29;20035;-74
2023/05/06 01:02:09;;;;;;;22.90;14.63;;;13.20;99.90;;;;;;4915533;29;20118;-76
2023/05/06 01:04:35;;;;;;;22.05;16.00;;;13.20;99.90;;;;;;4915609;29;20024;-74
2023/05/06 01:07:00;;;;;;;21.92;15.07;;;13.10;99.90;;;;;;4915203;29;20024;-71
2023/05/06 01:09:46;;;;;;;24.67;15.00;;;13.10;99.90;;;;;;4898146;29;20074;-76
2023/05/06 01:12:23;;;;;;;20.20;13.82;;;13.10;99.90;;;;;;4898777;29;20039;-75
2023/05/06 01:15:05;;;;;;;23.70;14.15;;;13.10;99.90;;;;;;4886692;29;20103;-76
2023/05/06 01:17:34;;;;;;;21.37;14.60;;;13.00;99.90;;;;;;4915351;29;20024;-75
2023/05/06 01:20:10;;;;;;;22.45;14.77;;;13.00;99.90;;;;;;4898222;29;20028;-75
2023/05/06 01:22:37;;;;;;;21.10;15.15;;;12.90;99.90;;;;;;4915070;29;20434;-72
2023/05/06 01:25:04;;;;;;;20.08;14.88;;;12.90;99.90;;;;;;4898287;29;20122;-71
2023/05/06 01:27:30;;;;;;;23.52;15.80;;;12.80;99.90;;;;;;4898718;29;20028;-73
2023/05/06 01:29:58;;;;;;;22.40;14.98;;;12.80;99.90;;;;;;4918653;29;20043;-76
2023/05/06 01:32:41;;;;;;;24.67;16.90;;;12.70;99.90;;;;;;4918928;29;20095;-76
2023/05/06 01:35:37;;;;;;;23.58;16.38;;;12.70;99.90;;;;;;4918612;29;20095;-71
2023/05/06 01:38:14;;;;;;;21.42;15.20;;;12.80;99.90;;;;;;4823589;29;20035;-75
2023/05/06 01:40:43;;;;;;;26.92;17.55;;;12.70;99.90;;;;;;4823547;29;20042;-75
2023/05/06 01:43:11;;;;;;;25.27;16.45;;;12.60;99.90;;;;;;4808432;29;20034;-75
2023/05/06 01:45:38;;;;;;;26.45;16.05;;;12.50;99.90;;;;;;4808028;29;20058;-71
2023/05/06 01:48:05;;;;;;;24.08;14.93;;;12.40;99.90;;;;;;4808367;29;20094;-73
2023/05/06 01:50:32;;;;;;;22.52;16.17;;;12.40;99.90;;;;;;4823212;29;20074;-76
2023/05/06 01:53:01;;;;;;;21.92;15.90;;;12.40;99.90;;;;;;4808390;29;20034;-76
2023/05/06 01:55:27;;;;;;;20.63;14.60;;;12.40;99.90;;;;;;4822962;29;20094;-73
2023/05/06 01:57:55;;;;;;;26.80;16.45;;;12.40;99.90;;;;;;4808469;29;20034;-73
2023/05/06 02:00:23;;;;;;;23.42;15.10;;;12.40;99.90;;;;;;4823090;29;20034;-71
2023/05/06 02:02:49;;;;;;;20.45;15.02;;;12.40;99.90;;;;;;4823424;29;20132;-74
2023/05/06 02:05:15;;;;;;;23.35;15.30;;;12.40;99.90;;;;;;4807982;29;20030;-77
2023/05/06 02:07:45;;;;;;;20.65;14.77;;;12.40;99.90;;;;;;4807857;29;20038;-72
2023/05/06 02:10:12;;;;;;;27.35;16.50;;;12.40;99.90;;;;;;4807968;29;20458;-75
2023/05/06 02:12:42;;;;;;;25.90;16.90;;;12.40;99.90;;;;;;4807793;29;20022;-75
2023/05/06 02:15:09;;;;;;;24.27;16.00;;;12.30;99.90;;;;;;4876320;29;20044;-76
2023/05/06 02:17:36;;;;;;;25.25;17.35;;;12.30;99.90;;;;;;4901005;29;20071;-75
2023/05/06 02:20:02;;;;;;;25.63;17.70;;;12.30;99.90;;;;;;4900974;29;20468;-72
2023/05/06 02:22:28;;;;;;;23.52;17.08;;;12.30;99.90;;;;;;4917845;29;20016;-75
2023/05/06 02:24:54;;;;;;;24.90;17.63;;;12.30;99.90;;;;;;4899701;29;20044;-77
2023/05/06 02:27:20;;;;;;;23.52;17.13;;;12.30;99.90;;;;;;4900604;29;20111;-75
2023/05/06 02:29:46;;;;;;;26.85;17.05;;;12.30;99.90;;;;;;4900234;29;20501;-71
2023/05/06 02:32:14;;;;;;;21.85;16.40;;;12.30;99.90;;;;;;4917791;29;20452;-74
2023/05/06 02:34:40;;;;;;;27.05;17.63;;;12.20;99.90;;;;;;4917320;29;20029;-73
2023/05/06 02:37:06;;;;;;;24.73;17.92;;;12.20;99.90;;;;;;4900516;29;20047;-76
2023/05/06 02:39:37;;;;;;;24.75;17.83;;;12.20;99.90;;;;;;4916812;29;20039;-75
2023/05/06 02:42:03;;;;;;;24.52;17.55;;;12.10;99.90;;;;;;4900714;29;20551;-75
2023/05/06 02:44:29;;;;;;;24.63;18.83;;;12.10;99.90;;;;;;4917115;29;20171;-76
2023/05/06 02:46:57;;;;;;;21.88;16.23;;;12.00;99.90;;;;;;4917487;29;20032;-77
2023/05/06 02:49:23;;;;;;;22.48;16.17;;;12.00;99.90;;;;;;4900065;29;20058;-73
2023/05/06 02:51:52;;;;;;;21.75;16.58;;;12.00;99.90;;;;;;4917479;29;20048;-77
2023/05/06 02:54:18;;;;;;;24.73;17.73;;;12.00;99.90;;;;;;4900352;29;20028;-76
2023/05/06 02:56:45;;;;;;;24.48;17.92;;;12.00;99.90;;;;;;4917221;29;20127;-73
2023/05/06 02:59:10;;;;;;;25.40;17.65;;;12.00;99.90;;;;;;4900109;29;20024;-74
2023/05/06 03:01:36;;;;;;;25.10;17.67;;;11.90;99.90;;;;;;4884447;29;20055;-77
2023/05/06 03:04:02;;;;;;;25.13;16.42;;;11.90;99.90;;;;;;4917181;29;20052;-76
2023/05/06 03:06:28;;;;;;;26.83;16.50;;;11.90;99.90;;;;;;4900008;29;20051;-74
2023/05/06 03:08:54;;;;;;;25.58;18.48;;;11.90;99.90;;;;;;4916960;29;20029;-75
2023/05/06 03:11:25;;;;;;;29.92;20.75;;;11.90;99.90;;;;;;4916921;29;20044;-76
2023/05/06 03:13:51;;;;;;;30.13;20.60;;;11.90;99.90;;;;;;4916804;29;20111;-74
2023/05/06 03:16:17;;;;;;;25.35;18.85;;;11.90;99.90;;;;;;4899636;29;20461;-76
2023/05/06 03:18:47;;;;;;;32.35;18.90;;;11.80;99.90;;;;;;4916626;29;20056;-72
2023/05/06 03:21:13;;;;;;;31.63;20.70;;;11.90;99.90;;;;;;4899755;29;20076;-76
2023/05/06 03:23:41;;;;;;;27.33;21.40;;;11.90;99.90;;;;;;4899506;29;20484;-76
2023/05/06 03:26:07;;;;;;;26.10;19.27;;;11.90;99.90;;;;;;4916698;29;20059;-75
2023/05/06 03:28:33;;;;;;;29.40;19.65;;;11.90;99.90;;;;;;4899514;29;20115;-73
2023/05/06 03:31:01;;;;;;;25.77;18.15;;;11.90;99.90;;;;;;4899743;29;20056;-75
2023/05/06 03:33:31;;;;;;;24.45;18.38;;;11.90;99.90;;;;;;4899672;29;20075;-75
2023/05/06 03:35:58;;;;;;;28.33;17.70;;;11.90;99.90;;;;;;4899217;29;20087;-73
2023/05/06 03:38:27;;;;;;;26.23;17.73;;;12.20;99.90;;;;;;4899657;29;20024;-75
2023/05/06 03:40:59;;;;;;;21.52;16.50;;;12.30;99.90;;;;;;4899000;29;20043;-75
2023/05/06 03:43:26;;;;;;;24.52;16.98;;;12.60;99.90;;;;;;4899365;29;20024;-76
2023/05/06 03:45:57;;;;;;;21.38;15.80;;;13.00;99.90;;;;;;4899157;29;20507;-77
2023/05/06 03:48:23;;;;;;;18.65;13.73;;;13.40;99.90;;;;;;4899556;29;20024;-76
2023/05/06 03:50:49;;;;;;;22.77;12.50;;;13.70;99.90;;;;;;4915577;29;20414;-77
2023/05/06 03:53:16;;;;;;;20.48;12.75;;;14.00;99.90;;;;;;4883542;29;20127;-76
2023/05/06 03:55:53;;;;;;;20.45;12.70;;;14.40;99.90;;;;;;4899069;29;20031;-75
2023/05/06 03:58:20;;;;;;;18.90;12.65;;;14.90;99.90;;;;;;4899039;29;20040;-72
2023/05/06 04:00:46;;;;;;;18.42;12.32;;;15.30;99.90;;;;;;4899133;29;20020;-74
2023/05/06 04:03:12;;;;;;;18.67;12.13;;;15.80;99.90;;;;;;4916011;29;20043;-76
2023/05/06 04:05:45;;;;;;;20.35;11.68;;;15.90;99.90;;;;;;4899082;29;20496;-76
2023/05/06 04:08:15;;;;;;;18.92;12.43;;;16.10;99.90;;;;;;4899236;29;20127;-77
2023/05/06 04:10:42;;;;;;;20.10;12.65;;;16.40;99.90;;;;;;4898718;29;20139;-76
2023/05/06 04:13:16;;;;;;;19.35;12.98;;;16.90;99.90;;;;;;4899075;29;20032;-76
2023/05/06 04:15:43;;;;;;;19.15;11.85;;;17.50;99.90;;;;;;4898873;29;20028;-72
2023/05/06 04:18:18;;;;;;;17.20;12.38;;;17.50;99.90;;;;;;4898933;29;20541;-77
2023/05/06 04:20:49;;;;;;;17.25;12.10;;;18.00;99.90;;;;;;4899060;29;20508;-72
2023/05/06 04:23:15;;;;;;;22.48;11.80;;;18.50;99.80;;;;;;4915567;29;20036;-77
2023/05/06 04:25:47;;;;;;;17.85;10.98;;;19.30;99.80;;;;;;4915767;29;20020;-72
2023/05/06 04:28:15;;;;;;;17.52;11.15;;;19.40;98.40;;;;;;4898009;29;20040;-77
2023/05/06 04:30:45;;;;;;;19.92;11.45;;;19.70;99.40;;;;;;4898859;29;20047;-76
2023/05/06 04:33:12;;;;;;;21.02;12.95;;;19.90;98.40;;;;;;4898801;29;20028;-76
2023/05/06 04:35:39;;;;;;;21.35;13.40;;;19.90;98.10;;;;;;4898955;29;20028;-77
2023/05/06 04:38:05;;;;;;;19.50;14.25;;;20.00;97.20;;;;;;4898615;29;20025;-77
2023/05/06 04:40:35;;;;;;;18.23;13.30;;;20.60;96.80;;;;;;4898372;29;20056;-75
2023/05/06 04:43:01;;;;;;;20.83;12.60;;;21.30;95.60;;;;;;4898682;29;20403;-76
2023/05/06 04:45:29;;;;;;;18.40;12.98;;;21.60;95.40;;;;;;4898489;29;20115;-76
2023/05/06 04:47:55;;;;;;;17.75;12.55;;;22.30;94.30;;;;;;4915872;29;20024;-76
2023/05/06 04:50:21;;;;;;;17.38;12.63;;;22.90;93.00;;;;;;4898545;29;20051;-76
2023/05/06 04:52:47;;;;;;;19.60;13.70;;;23.30;93.20;;;;;;4898784;29;20122;-75
2023/05/06 04:55:15;;;;;;;17.40;12.90;;;23.40;92.10;;;;;;4897926;29;20073;-77
2023/05/06 04:57:46;;;;;;;18.60;13.13;;;23.30;92.00;;;;;;4886414;29;20032;-77
2023/05/06 05:00:16;;;;;;;20.73;13.30;;;23.30;93.10;;;;;;4915444;29;20039;-76
2023/05/06 05:02:42;;;;;;;21.23;13.63;;;22.20;93.50;;;;;;4903977;29;20079;-76
2023/05/06 05:05:08;;;;;;;21.17;14.73;;;21.50;93.50;;;;;;4902335;29;20040;-76
2023/05/06 05:07:35;;;;;;;23.20;14.85;;;21.00;93.70;;;;;;4902236;29;20028;-76
2023/05/06 05:10:01;;;;;;;27.45;14.82;;;20.50;95.30;;;;;;4901176;29;20036;-75
2023/05/06 05:12:27;;;;;;;20.63;15.32;;;20.20;95.90;;;;;;4901568;29;20111;-76
2023/05/06 05:14:53;;;;;;;20.48;13.32;;;19.80;96.30;;;;;;4906525;29;20164;-72
2023/05/06 05:17:19;;;;;;;22.00;13.60;;;19.60;96.30;;;;;;4901098;29;20032;-76
2023/05/06 05:19:47;;;;;;;24.50;13.23;;;19.50;96.10;;;;;;4901700;29;20385;-73
2023/05/06 05:22:14;;;;;;;25.10;13.98;;;19.30;96.70;;;;;;4896953;29;20055;-75
2023/05/06 05:24:40;;;;;;;22.05;13.25;;;19.30;97.00;;;;;;4898110;29;20040;-75
2023/05/06 05:27:06;;;;;;;19.52;13.23;;;19.20;97.50;;;;;;4879622;29;20503;-76
2023/05/06 05:29:32;;;;;;;17.90;12.35;;;19.10;98.30;;;;;;4901478;29;20038;-74
2023/05/06 05:32:00;;;;;;;20.80;13.40;;;19.10;98.30;;;;;;4913217;29;20044;-76
2023/05/06 05:34:25;;;;;;;25.88;13.38;;;19.20;99.10;;;;;;4898568;29;20033;-73
2023/05/06 05:36:51;;;;;;;22.90;12.35;;;19.30;99.70;;;;;;4884966;29;20025;-75
2023/05/06 05:39:18;;;;;;;20.02;13.05;;;19.30;98.90;;;;;;4888910;29;20429;-75
2023/05/06 05:41:47;;;;;;;21.35;12.38;;;19.30;99.50;;;;;;4893074;29;20033;-74
2023/05/06 05:44:15;;;;;;;20.95;13.00;;;19.30;99.60;;;;;;4914051;29;20084;-73
2023/05/06 05:46:41;;;;;;;20.70;12.77;;;19.40;99.00;;;;;;4888103;29;20453;-74
2023/05/06 05:49:28;;;;;;;25.10;14.77;;;19.40;99.00;;;;;;4917858;29;20040;-74
2023/05/06 05:51:56;;;;;;;23.05;15.60;;;19.50;97.80;;;;;;4900595;29;20132;-73
2023/05/06 05:54:22;;;;;;;22.15;15.10;;;19.60;98.90;;;;;;4918165;29;20027;-73
2023/05/06 05:56:49;;;;;;;24.35;16.35;;;19.40;99.70;;;;;;4917935;29;20028;-73
2023/05/06 05:59:15;;;;;;;25.50;15.93;;;19.10;99.40;;;;;;4917624;29;20031;-73
2023/05/06 06:01:42;;;;;;;27.20;15.73;;;19.40;99.90;;;;;;4901256;29;20032;-73
2023/05/06 06:04:09;;;;;;;22.35;16.23;;;19.40;99.70;;;;;;4900587;29;20119;-73
2023/05/06 06:06:35;;;;;;;24.55;17.65;;;19.60;99.90;;;;;;4917894;29;20107;-72
2023/05/06 06:09:01;;;;;;;27.45;17.10;;;19.40;99.90;;;;;;4900735;29;20079;-73
2023/05/06 06:11:28;;;;;;;23.40;16.23;;;19.70;99.90;;;;;;4896619;29;20127;-73
2023/05/06 06:13:54;;;;;;;23.52;15.57;;;19.80;99.90;;;;;;4908313;29;20099;-73
2023/05/06 06:16:21;;;;;;;25.95;16.58;;;19.80;99.90;;;;;;4917999;29;20074;-72
2023/05/06 06:18:47;;;;;;;22.73;13.65;;;19.60;99.90;;;;;;4896362;29;20031;-72
2023/05/06 06:21:13;;;;;;;31.83;17.00;;;19.70;99.90;;;;;;4892403;29;20040;-76
2023/05/06 06:23:39;;;;;;;19.33;13.63;;;19.90;99.90;;;;;;4888485;29;20039;-72
2023/05/06 06:26:09;;;;;;;20.10;12.65;;;19.10;99.00;;;;;;4894996;29;20030;-73
2023/05/06 06:28:35;;;;;;;19.45;13.68;;;19.30;99.90;;;;;;4875689;29;20043;-73
2023/05/06 06:31:01;;;;;;;22.17;13.52;;;19.40;99.90;;;;;;4881729;29;20049;-73
2023/05/06 06:33:27;;;;;;;20.80;12.98;;;19.70;99.90;;;;;;4882356;29;20047;-73
2023/05/06 06:35:53;;;;;;;17.17;12.68;;;20.00;99.90;;;;;;4881506;29;20484;-72
2023/05/06 06:38:26;;;;;;;18.23;12.55;;;19.50;99.90;;;;;;4894810;23;20072;-73
2023/05/06 06:40:51;;;;;;;;;;;19.50;99.90;;;;;;4896619;29;20035;-72
2023/05/06 06:43:18;;;;;;;17.45;12.75;;;19.80;99.90;;;;;;4896102;29;20005;-73
2023/05/06 06:45:57;;;;;;;16.67;12.02;;;19.50;99.90;;;;;;4885031;29;20037;-72
2023/05/06 06:48:23;;;;;;;17.42;11.77;;;20.00;99.90;;;;;;4890227;29;20500;-71
2023/05/06 06:50:49;;;;;;;19.55;12.18;;;19.50;99.90;;;;;;4892219;29;20083;-73
2023/05/06 06:53:16;;;;;;;17.27;11.90;;;20.20;99.90;;;;;;4885416;29;20466;-73
2023/05/06 06:55:43;;;;;;;16.88;12.00;;;20.70;99.90;;;;;;4895126;29;20029;-73
2023/05/06 06:58:09;;;;;;;19.45;11.40;;;21.00;99.90;;;;;;4881077;29;20031;-73
2023/05/06 07:00:35;;;;;;;16.33;10.75;;;21.20;99.20;;;;;;4886595;29;20039;-74
2023/05/06 07:03:01;;;;;;;20.92;11.00;;;21.40;99.30;;;;;;4879343;29;20116;-72
2023/05/06 07:05:27;;;;;;;16.58;10.25;;;21.70;98.30;;;;;;4886719;29;20021;-72
2023/05/06 07:07:54;;;;;;;17.17;10.52;;;21.70;98.60;;;;;;4868755;29;20037;-74
2023/05/06 07:10:20;;;;;;;14.90;10.35;;;21.80;98.70;;;;;;4879118;29;20486;-75
2023/05/06 07:12:46;;;;;;;15.13;10.32;;;21.10;98.50;;;;;;4879452;29;20542;-74
2023/05/06 07:15:12;;;;;;;12.85;9.60;;;21.40;98.50;;;;;;4879357;29;20033;-73
2023/05/06 07:17:37;;;;;;;16.33;10.10;;;21.80;97.30;;;;;;4879565;29;20036;-74
2023/05/06 07:20:04;;;;;;;14.38;8.13;;;21.90;97.20;;;;;;4876392;29;20466;-73
2023/05/06 07:22:29;;;;;;;15.05;8.68;;;21.40;96.10;;;;;;4868430;29;20045;-76
2023/05/06 07:24:55;;;;;;;12.38;8.55;;;21.60;96.30;;;;;;4871470;29;20065;-73
2023/05/06 07:27:22;;;;;;;16.48;9.35;;;21.80;96.70;;;;;;4878225;29;20486;-74
2023/05/06 07:29:49;;;;;;;14.35;8.32;;;22.00;95.60;;;;;;4878107;29;20029;-75
2023/05/06 07:32:15;;;;;;;11.80;8.02;;;22.30;97.20;;;;;;4879130;29;20033;-72
2023/05/06 07:34:41;;;;;;;14.55;8.07;;;22.20;94.90;;;;;;4879079;29;20172;-75
2023/05/06 07:37:07;;;;;;;14.90;8.25;;;22.70;94.80;;;;;;4877810;29;20120;-75
2023/05/06 07:39:33;;;;;;;16.65;8.48;;;22.80;94.50;;;;;;4909017;29;20060;-77
2023/05/06 07:42:00;;;;;;;12.90;8.40;;;22.40;93.90;;;;;;4908964;29;20034;-73
2023/05/06 07:44:26;;;;;;;12.65;7.53;;;23.10;95.60;;;;;;4880583;29;20021;-72
2023/05/06 07:46:52;;;;;;;11.82;8.40;;;23.10;94.20;;;;;;4878656;29;20556;-73
2023/05/06 07:49:18;;;;;;;15.65;8.15;;;22.90;94.30;;;;;;4878535;29;20035;-70
2023/05/06 07:51:44;;;;;;;14.00;8.80;;;23.20;94.40;;;;;;4878599;29;20116;-72
2023/05/06 07:54:10;;;;;;;16.33;9.18;;;22.90;95.60;;;;;;4878446;29;20025;-72
2023/05/06 07:56:36;;;;;;;15.57;8.50;;;23.50;94.90;;;;;;4880302;29;20056;-73
2023/05/06 07:59:01;;;;;;;11.63;7.68;;;23.00;94.10;;;;;;4861924;29;20371;-72
2023/05/06 08:01:30;;;;;;;15.25;9.75;;;23.10;95.10;;;;;;4890819;29;20028;-72
2023/05/06 08:03:56;;;;;;;13.52;8.90;;;23.30;94.10;;;;;;4901474;29;20028;-72
2023/05/06 08:06:22;;;;;;;13.18;7.93;;;23.20;95.10;;;;;;4914098;29;20071;-73
2023/05/06 08:08:48;;;;;;;12.40;8.50;;;22.90;94.20;;;;;;4904789;29;20029;-73
2023/05/06 08:11:13;;;;;;;14.40;7.90;;;23.40;94.30;;;;;;4915924;29;20036;-73
2023/05/06 08:13:39;;;;;;;17.85;9.45;;;23.30;94.40;;;;;;4902360;29;20071;-72
2023/05/06 08:16:05;;;;;;;13.52;8.48;;;23.60;94.80;;;;;;4905513;29;20041;-71
2023/05/06 08:18:32;;;;;;;11.05;7.43;;;23.80;94.20;;;;;;4885943;29;20056;-71
2023/05/06 08:20:58;;;;;;;10.45;6.50;;;24.10;95.40;;;;;;4886433;29;20064;-74
2023/05/06 08:23:23;;;;;;;9.90;6.50;;;24.00;93.50;;;;;;4879716;29;20071;-72
2023/05/06 08:25:49;;;;;;;13.18;6.35;;;24.00;93.40;;;;;;4897055;29;20064;-72
2023/05/06 08:28:15;;;;;;;14.20;6.60;;;24.20;93.50;;;;;;4896751;29;20544;-73
2023/05/06 08:30:41;;;;;;;12.20;7.32;;;24.40;93.60;;;;;;4896886;29;20041;-73
2023/05/06 08:33:07;;;;;;;15.93;6.47;;;24.50;94.30;;;;;;4895551;29;20024;-73
2023/05/06 08:35:32;;;;;;;12.82;5.82;;;24.70;94.00;;;;;;4885708;29;20103;-74
2023/05/06 08:37:58;;;;;;;9.52;6.15;;;24.90;92.60;;;;;;4882168;29;20429;-74
2023/05/06 08:40:26;;;;;;;8.65;5.82;;;25.00;92.80;;;;;;4903017;29;20032;-75
2023/05/06 08:42:54;;;;;;;9.93;5.43;;;25.10;92.80;;;;;;4903150;29;20028;-73
2023/05/06 08:45:20;;;;;;;9.63;5.38;;;25.00;94.00;;;;;;4903333;29;20033;-75
2023/05/06 08:47:46;;;;;;;11.68;6.07;;;24.80;91.80;;;;;;4902632;29;20361;-74
2023/05/06 08:50:12;;;;;;;7.97;5.47;;;24.50;92.40;;;;;;4902953;29;20049;-73
2023/05/06 08:52:39;;;;;;;6.85;4.60;;;24.50;93.90;;;;;;4902770;29;20029;-72
2023/05/06 08:55:06;;;;;;;11.05;4.90;;;24.60;92.30;;;;;;4903092;29;20052;-71
2023/05/06 08:57:33;;;;;;;10.07;5.35;;;24.40;92.50;;;;;;4886030;29;20035;-71
2023/05/06 09:00:00;;;;;;;9.45;5.65;;;23.70;91.40;;;;;;4903306;29;20115;-73
2023/05/06 09:02:26;;;;;;;7.90;4.60;;;24.00;92.50;;;;;;4902959;29;20413;-73
2023/05/06 09:04:53;;;;;;;11.35;5.38;;;24.10;91.70;;;;;;4902737;29;20027;-75
2023/05/06 09:07:23;;;;;;;9.85;4.22;;;24.00;93.30;;;;;;4902518;29;20065;-73
2023/05/06 09:09:50;;;;;;;8.38;4.72;;;23.90;91.30;;;;;;4902785;29;20051;-73
2023/05/06 09:12:15;;;;;;;7.50;4.20;;;24.40;93.40;;;;;;4902627;29;20021;-74
2023/05/06 09:14:41;;;;;;;9.70;4.68;;;24.70;92.10;;;;;;4902816;29;20043;-71
2023/05/06 09:17:22;;;;;;;8.27;4.60;;;24.10;90.00;;;;;;4885777;29;20088;-76
2023/05/06 09:19:52;;;;;;;9.23;4.60;;;24.40;90.90;;;;;;4902663;29;20032;-73
2023/05/06 09:22:23;;;;;;;6.03;4.10;;;24.60;91.20;;;;;;4902703;29;20040;-71
2023/05/06 09:24:55;;;;;;;7.78;3.78;;;24.00;90.00;;;;;;4902958;29;20072;-75
2023/05/06 09:27:35;;;;;;;5.85;3.85;;;24.10;90.20;;;;;;4902366;29;20054;-73
2023/05/06 09:30:04;;;;;;;15.38;4.70;;;24.40;90.70;;;;;;4902796;29;20055;-75
2023/05/06 09:32:31;;;;;;;5.80;3.83;;;24.60;90.80;;;;;;4902512;29;20025;-72
2023/05/06 09:34:57;;;;;;;7.20;4.53;;;24.50;90.10;;;;;;4902645;29;20087;-72
2023/05/06 09:37:25;;;;;;;5.55;3.88;;;24.70;90.20;;;;;;4902544;29;20028;-71
2023/05/06 09:39:54;;;;;;;7.57;3.88;;;24.50;88.70;;;;;;4902557;29;20036;-71
2023/05/06 09:42:25;;;;;;;6.95;4.35;;;24.50;90.00;;;;;;4902302;29;20052;-73
2023/05/06 09:44:55;;;;;;;9.80;4.60;;;24.70;89.20;;;;;;4902357;29;20020;-73
2023/05/06 09:47:25;;;;;;;8.23;4.45;;;24.30;88.60;;;;;;4902623;29;20035;-72
2023/05/06 09:50:00;;;;;;;16.30;4.22;;;24.50;91.80;;;;;;4900382;29;20055;-73
2023/05/06 09:52:27;;;;;;;5.45;4.13;;;24.60;90.60;;;;;;4899343;29;20133;-72
2023/05/06 09:54:54;;;;;;;10.18;3.97;;;24.80;89.50;;;;;;4899506;29;20099;-74
2023/05/06 09:57:21;;;;;;;6.50;4.35;;;25.00;90.50;;;;;;4899123;29;20029;-72
2023/05/06 09:59:47;;;;;;;6.80;3.97;;;24.90;89.40;;;;;;4896004;29;20039;-71
2023/05/06 10:02:13;;;;;;;6.72;4.45;;;24.90;88.60;;;;;;4896358;29;20032;-75
2023/05/06 10:04:41;;;;;;;6.78;4.40;;;24.90;90.10;;;;;;4899263;29;20033;-71
2023/05/06 10:07:11;;;;;;;7.88;4.57;;;24.70;89.90;;;;;;4890071;29;20450;-72
2023/05/06 10:09:40;;;;;;;7.93;4.53;;;24.60;86.30;;;;;;4905788;29;20549;-72
2023/05/06 10:12:07;;;;;;;9.65;4.15;;;24.70;87.10;;;;;;4899072;29;20029;-75
2023/05/06 10:14:36;;;;;;;9.82;4.40;;;24.50;89.60;;;;;;4899241;29;20481;-75
2023/05/06 10:17:11;;;;;;;6.22;3.83;;;24.50;90.20;;;;;;4899329;29;20017;-73
2023/05/06 10:19:41;;;;;;;7.22;4.15;;;24.70;90.70;;;;;;4892458;29;20040;-74
2023/05/06 10:22:38;;;;;;;7.95;4.72;;;24.80;91.00;;;;;;4886550;29;20035;-73
2023/05/06 10:25:06;;;;;;;8.30;4.35;;;24.80;90.50;;;;;;4839827;29;20117;-73
2023/05/06 10:27:38;;;;;;;6.18;3.92;;;25.00;90.50;;;;;;4840700;29;20129;-74
2023/05/06 10:30:06;;;;;;;5.55;3.60;;;25.20;90.00;;;;;;4838429;29;20050;-71
2023/05/06 10:32:32;;;;;;;8.43;4.53;;;25.00;90.30;;;;;;4839728;29;20038;-71
2023/05/06 10:35:09;;;;;;;7.47;4.07;;;25.00;90.40;;;;;;4840389;29;20504;-73
2023/05/06 10:37:37;;;;;;;5.90;4.05;;;25.00;91.20;;;;;;4827853;29;20382;-73
2023/05/06 10:40:04;;;;;;;6.47;4.35;;;25.00;90.60;;;;;;4833358;29;20070;-74
2023/05/06 10:42:34;;;;;;;8.20;4.15;;;24.90;90.90;;;;;;4834747;29;20237;-73
2023/05/06 10:45:02;;;;;;;28.20;6.13;;;24.70;89.00;;;;;;4830630;29;20071;-73
2023/05/06 10:48:02;;;;;;;6.10;4.07;;;25.10;92.80;;;;;;4819075;29;20022;-72
2023/05/06 10:50:28;;;;;;;6.13;4.00;;;25.00;90.70;;;;;;4828640;29;20050;-73
2023/05/06 10:52:55;;;;;;;6.40;4.00;;;25.30;91.20;;;;;;4823130;29;20454;-72
2023/05/06 10:55:26;;;;;;;7.03;3.90;;;25.20;89.50;;;;;;4834546;29;20083;-73
2023/05/06 10:58:15;;;;;;;5.28;4.15;;;24.90;90.00;;;;;;4838352;29;20042;-72
2023/05/06 11:00:49;;;;;;;6.18;4.03;;;25.10;89.90;;;;;;4837709;29;20045;-76
2023/05/06 11:03:17;;;;;;;5.85;3.80;;;25.20;90.40;;;;;;4883899;29;20021;-75
2023/05/06 11:05:53;;;;;;;6.85;4.40;;;24.50;88.00;;;;;;4892032;29;20477;-72
2023/05/06 11:08:26;;;;;;;5.72;3.42;;;24.60;90.50;;;;;;4883953;29;20039;-72
2023/05/06 11:10:53;;;;;;;14.57;4.82;;;24.60;90.80;;;;;;4890419;29;20112;-73
2023/05/06 11:13:33;;;;;;;4.63;3.67;;;24.80;90.60;;;;;;4896604;29;20024;-73
2023/05/06 11:16:00;;;;;;;6.82;3.72;;;25.10;91.20;;;;;;4898257;29;20610;-73
2023/05/06 11:18:26;;;;;;;5.65;3.92;;;25.10;88.00;;;;;;4898125;29;20016;-75
2023/05/06 11:21:01;;;;;;;7.03;4.38;;;25.10;89.10;;;;;;4880573;29;20033;-76
2023/05/06 11:23:51;;;;;;;8.35;4.00;;;25.30;88.70;;;;;;4898131;29;20048;-76
2023/05/06 11:26:17;;;;;;;6.30;3.70;;;25.60;90.20;;;;;;4897961;29;20032;-75
2023/05/06 11:28:45;;;;;;;8.50;4.18;;;25.40;87.10;;;;;;4897775;29;20103;-76
2023/05/06 11:31:11;;;;;;;6.65;3.42;;;25.50;88.60;;;;;;4896812;29;20152;-77
2023/05/06 11:33:53;;;;;;;7.82;3.60;;;25.60;88.10;;;;;;4897751;29;20036;-75
2023/05/06 11:36:20;;;;;;;8.90;3.63;;;25.40;89.50;;;;;;4897573;29;20043;-76
2023/05/06 11:38:55;;;;;;;7.18;3.40;;;25.50;90.00;;;;;;4897687;29;20048;-77
2023/05/06 11:41:21;;;;;;;5.65;3.50;;;25.70;87.50;;;;;;4890111;29;20392;-77
2023/05/06 11:43:52;;;;;;;6.65;3.60;;;25.30;86.30;;;;;;4897100;29;20071;-73
2023/05/06 11:46:19;;;;;;;5.80;3.63;;;25.40;87.70;;;;;;4895837;29;20414;-76
2023/05/06 11:48:45;;;;;;;8.88;3.70;;;25.40;86.70;;;;;;4897062;29;20104;-75
2023/05/06 11:51:11;;;;;;;5.82;3.80;;;25.20;88.30;;;;;;4897412;29;20044;-73
2023/05/06 11:53:37;;;;;;;14.65;3.67;;;25.20;85.60;;;;;;4897457;29;20058;-73
2023/05/06 11:56:05;;;;;;;4.47;3.17;;;25.40;86.90;;;;;;4897450;29;20036;-75
2023/05/06 11:58:31;;;;;;;12.52;3.47;;;25.40;86.90;;;;;;4897010;29;20025;-74
2023/05/06 12:00:59;;;;;;;8.80;4.70;;;25.50;86.20;;;;;;4897071;29;20071;-76
2023/05/06 12:03:27;;;;;;;5.47;3.30;;;25.40;88.30;;;;;;4896732;29;20474;-76
2023/05/06 12:05:54;;;;;;;7.95;3.47;;;25.00;84.40;;;;;;4896956;29;20051;-72
2023/05/06 12:08:30;;;;;;;4.35;2.97;;;25.40;86.40;;;;;;4871296;29;20045;-73
2023/05/06 12:11:07;;;;;;;5.22;3.20;;;25.20;86.10;;;;;;4887319;29;20083;-73
2023/05/06 12:13:35;;;;;;;5.78;3.28;;;25.40;84.60;;;;;;4884304;29;20500;-71
2023/05/06 12:16:01;;;;;;;5.72;2.83;;;25.00;83.00;;;;;;4860972;29;20048;-74
2023/05/06 12:18:28;;;;;;;4.95;2.83;;;24.80;83.40;;;;;;4876284;29;20123;-75
2023/05/06 12:20:54;;;;;;;8.35;2.50;;;25.00;82.20;;;;;;4875947;29;20516;-71
2023/05/06 12:23:20;;;;;;;4.68;2.63;;;25.10;83.60;;;;;;4876555;29;20033;-74
2023/05/06 12:26:03;;;;;;;5.32;2.72;;;25.30;85.30;;;;;;4876258;29;20039;-74
2023/05/06 12:28:30;;;;;;;6.05;3.22;;;25.40;85.70;;;;;;4880793;29;20033;-75
2023/05/06 12:30:56;;;;;;;3.95;2.60;;;25.40;85.60;;;;;;4892547;29;20463;-73
2023/05/06 12:33:22;;;;;;;3.97;2.92;;;25.60;86.00;;;;;;4882409;29;20120;-76
2023/05/06 12:35:50;;;;;;;3.95;2.75;;;25.40;84.10;;;;;;4880051;29;20040;-72
2023/05/06 12:38:17;;;;;;;4.78;2.78;;;25.40;87.90;;;;;;4890036;29;20053;-75